createdAt,value
2016-02-12T00:00:18.332Z,49.5
2016-02-12T00:01:18.396Z,49.6
2016-02-12T00:02:18.461Z,49.31
2016-02-12T00:03:18.495Z,49.91
2016-02-12T00:04:18.545Z,50.1
2016-02-12T00:05:18.610Z,49.88
2016-02-12T00:06:18.660Z,49.79
2016-02-12T00:07:18.709Z,49.98
2016-02-12T00:08:18.744Z,49.69
2016-02-12T00:09:18.810Z,49.98
2016-02-12T00:10:18.859Z,50.17
2016-02-12T00:11:18.918Z,49.79
2016-02-12T00:12:18.967Z,50.01
2016-02-12T00:13:19.018Z,50.1
2016-02-12T00:14:19.067Z,50.1
2016-02-12T00:15:18.992Z,50.08
2016-02-12T00:16:19.181Z,49.91
2016-02-12T00:17:19.248Z,49.98
2016-02-12T00:18:19.281Z,50.08
2016-02-12T00:19:19.346Z,49.98
2016-02-12T00:20:19.397Z,49.98
2016-02-12T00:21:19.462Z,50.08
2016-02-12T00:22:19.512Z,49.98
2016-02-12T00:23:19.545Z,49.98
2016-02-12T00:24:19.616Z,50.08
2016-02-12T00:25:19.638Z,50.17
2016-02-12T00:26:19.706Z,50.27
2016-02-12T00:27:19.713Z,50.37
2016-02-12T00:28:19.778Z,50.17
2016-02-12T00:29:19.822Z,50.27
2016-02-12T00:30:19.868Z,50.37
2016-02-12T00:31:19.929Z,50.17
2016-02-12T00:32:19.959Z,50.27
2016-02-12T00:33:20.019Z,50.27
2016-02-12T00:34:20.068Z,50.17
2016-02-12T00:35:20.116Z,50.17
2016-02-12T00:36:20.211Z,50.37
2016-02-12T00:37:20.216Z,50.65
2016-02-12T00:38:20.279Z,50.75
2016-02-12T00:39:20.328Z,50.65
2016-02-12T00:40:20.376Z,50.65
2016-02-12T00:41:20.457Z,50.56
2016-02-12T00:42:20.491Z,50.65
2016-02-12T00:43:20.536Z,50.56
2016-02-12T00:44:20.585Z,50.56
2016-02-12T00:45:20.651Z,50.56
2016-02-12T00:46:20.685Z,50.56
2016-02-12T00:47:20.749Z,50.65
2016-02-12T00:48:20.814Z,50.65
2016-02-12T00:49:20.848Z,50.75
2016-02-12T00:50:20.914Z,50.75
2016-02-12T00:51:20.963Z,50.65
2016-02-12T00:52:21.012Z,50.46
2016-02-12T00:53:21.062Z,49.98
2016-02-12T00:54:21.113Z,50.27
2016-02-12T00:55:21.162Z,50.65
2016-02-12T00:56:21.227Z,50.08
2016-02-12T00:57:21.277Z,50.37
2016-02-12T00:58:21.326Z,50.56
2016-02-12T00:59:21.393Z,50.46
2016-02-12T01:00:21.442Z,50.37
2016-02-12T01:01:21.507Z,50.75
2016-02-12T01:02:21.557Z,50.94
2016-02-12T01:03:21.599Z,50.84
2016-02-12T01:04:21.680Z,50.65
2016-02-12T01:05:21.713Z,50.94
2016-02-12T01:06:21.763Z,50.84
2016-02-12T01:07:21.829Z,50.56
2016-02-12T01:08:21.878Z,51.14
2016-02-12T01:09:21.912Z,50.94
2016-02-12T01:10:21.993Z,51.23
2016-02-12T01:11:22.045Z,50.75
2016-02-12T01:12:22.079Z,50.65
2016-02-12T01:13:22.147Z,50.84
2016-02-12T01:14:22.197Z,50.56
2016-02-12T01:15:22.247Z,50.65
2016-02-12T01:16:22.280Z,50.56
2016-02-12T01:17:22.346Z,50.75
2016-02-12T01:18:22.395Z,50.37
2016-02-12T01:19:22.460Z,50.94
2016-02-12T01:20:22.511Z,50.46
2016-02-12T01:21:22.560Z,50.84
2016-02-12T01:22:22.626Z,50.84
2016-02-12T01:23:22.675Z,50.65
2016-02-12T01:24:22.710Z,50.84
2016-02-12T01:25:22.759Z,50.84
2016-02-12T01:26:22.824Z,50.75
2016-02-12T01:27:22.889Z,50.75
2016-02-12T01:28:22.938Z,50.75
2016-02-12T01:29:22.988Z,50.84
2016-02-12T01:30:23.038Z,50.75
2016-02-12T01:31:23.119Z,51.04
2016-02-12T01:32:23.154Z,51.42
2016-02-12T01:33:23.203Z,51.32
2016-02-12T01:34:23.252Z,51.32
2016-02-12T01:35:23.319Z,51.42
2016-02-12T01:36:23.353Z,51.04
2016-02-12T01:37:23.418Z,51.14
2016-02-12T01:38:23.467Z,51.04
2016-02-12T01:39:23.533Z,51.14
2016-02-12T01:40:23.570Z,51.32
2016-02-12T01:41:23.650Z,50.94
2016-02-12T01:42:23.684Z,51.04
2016-02-12T01:43:23.753Z,51.51
2016-02-12T01:44:23.802Z,51.32
2016-02-12T01:45:23.852Z,51.42
2016-02-12T01:46:23.917Z,51.61
2016-02-12T01:47:23.951Z,51.42
2016-02-12T01:48:24.001Z,51.42
2016-02-12T01:49:24.051Z,51.51
2016-02-12T01:50:24.100Z,51.51
2016-02-12T01:51:24.197Z,51.71
2016-02-12T01:52:24.231Z,51.32
2016-02-12T01:53:24.280Z,51.23
2016-02-12T01:54:24.330Z,51.23
2016-02-12T01:55:24.380Z,51.32
2016-02-12T01:56:24.429Z,51.32
2016-02-12T01:57:24.479Z,51.42
2016-02-12T01:58:24.545Z,51.32
2016-02-12T01:59:24.594Z,51.32
2016-02-12T02:00:24.644Z,51.51
2016-02-12T02:01:24.694Z,51.51
2016-02-12T02:02:24.758Z,52.19
2016-02-12T02:03:24.808Z,51.81
2016-02-12T02:04:24.857Z,51.14
2016-02-12T02:05:24.922Z,51.42
2016-02-12T02:06:24.973Z,51.81
2016-02-12T02:07:25.023Z,51.9
2016-02-12T02:08:25.073Z,52.19
2016-02-12T02:09:25.122Z,52.09
2016-02-12T02:10:25.187Z,52.09
2016-02-12T02:11:25.221Z,52.38
2016-02-12T02:12:25.302Z,52
2016-02-12T02:13:25.352Z,52.09
2016-02-12T02:14:25.388Z,52
2016-02-12T02:15:25.453Z,51.9
2016-02-12T02:16:25.502Z,52.38
2016-02-12T02:17:25.568Z,52.95
2016-02-12T02:18:25.601Z,52.95
2016-02-12T02:19:25.682Z,52.57
2016-02-12T02:20:25.716Z,52.48
2016-02-12T02:21:25.766Z,52
2016-02-12T02:22:25.831Z,52.48
2016-02-12T02:23:25.880Z,52.38
2016-02-12T02:24:25.930Z,52.57
2016-02-12T02:25:25.979Z,52.57
2016-02-12T02:26:26.029Z,52.48
2016-02-12T02:27:26.110Z,52.76
2016-02-12T02:28:26.143Z,52.57
2016-02-12T02:29:26.193Z,52.86
2016-02-12T02:30:26.259Z,52.67
2016-02-12T02:31:26.309Z,52.67
2016-02-12T02:32:26.342Z,52.76
2016-02-12T02:33:26.423Z,52.76
2016-02-12T02:34:26.473Z,52.86
2016-02-12T02:35:26.537Z,52.48
2016-02-12T02:36:26.572Z,52.57
2016-02-12T02:37:26.622Z,52.67
2016-02-12T02:38:26.670Z,52.67
2016-02-12T02:39:26.736Z,52.67
2016-02-12T02:40:26.787Z,52.28
2016-02-12T02:41:26.836Z,52.19
2016-02-12T02:42:26.888Z,52.09
2016-02-12T02:43:26.924Z,52.09
2016-02-12T02:44:27.004Z,52.57
2016-02-12T02:45:27.069Z,52.86
2016-02-12T02:46:27.104Z,52.76
2016-02-12T02:47:27.152Z,52.95
2016-02-12T02:48:27.204Z,52.95
2016-02-12T02:49:27.270Z,52.95
2016-02-12T02:50:27.320Z,52.95
2016-02-12T02:51:27.369Z,52.76
2016-02-12T02:52:27.419Z,52.76
2016-02-12T02:53:27.469Z,52.57
2016-02-12T02:54:27.518Z,52.76
2016-02-12T02:55:27.569Z,52.57
2016-02-12T02:56:27.633Z,52
2016-02-12T02:57:27.682Z,52.38
2016-02-12T02:58:27.717Z,52.19
2016-02-12T02:59:27.782Z,52
2016-02-12T03:00:27.849Z,52.48
2016-02-12T03:01:27.898Z,52.95
2016-02-12T03:02:27.948Z,52.86
2016-02-12T03:03:27.997Z,52.76
2016-02-12T03:04:28.063Z,52.76
2016-02-12T03:05:28.113Z,52.86
2016-02-12T03:06:28.162Z,52.95
2016-02-12T03:07:28.243Z,52.57
2016-02-12T03:08:28.279Z,52.67
2016-02-12T03:09:28.313Z,52.76
2016-02-12T03:10:28.378Z,52.83
2016-02-12T03:11:28.276Z,53.15
2016-02-12T03:12:28.467Z,53.63
2016-02-12T03:13:28.531Z,53.44
2016-02-12T03:14:28.598Z,53.63
2016-02-12T03:15:28.647Z,53.63
2016-02-12T03:16:28.696Z,53.41
2016-02-12T03:17:28.731Z,53.53
2016-02-12T03:18:28.813Z,53.63
2016-02-12T03:19:28.847Z,53.53
2016-02-12T03:20:28.911Z,53.6
2016-02-12T03:21:28.977Z,53.24
2016-02-12T03:22:29.011Z,53.34
2016-02-12T03:23:29.060Z,53.53
2016-02-12T03:24:29.125Z,53.44
2016-02-12T03:25:29.175Z,53.44
2016-02-12T03:26:29.224Z,53.31
2016-02-12T03:27:29.259Z,53.15
2016-02-12T03:28:29.324Z,53.6
2016-02-12T03:29:29.388Z,53.31
2016-02-12T03:30:29.454Z,53.53
2016-02-12T03:31:29.488Z,53.24
2016-02-12T03:32:29.537Z,53.5
2016-02-12T03:33:29.603Z,53.31
2016-02-12T03:34:29.622Z,53.34
2016-02-12T03:35:29.703Z,53.31
2016-02-12T03:36:29.752Z,53.24
2016-02-12T03:37:29.803Z,53.31
2016-02-12T03:38:29.853Z,53.41
2016-02-12T03:39:29.917Z,53.34
2016-02-12T03:40:29.967Z,53.41
2016-02-12T03:41:30.017Z,53.41
2016-02-12T03:42:30.066Z,53.34
2016-02-12T03:43:30.121Z,53.79
2016-02-12T03:44:30.170Z,53.03
2016-02-12T03:45:30.220Z,53.15
2016-02-12T03:46:30.268Z,53.7
2016-02-12T03:47:30.334Z,53.7
2016-02-12T03:48:30.383Z,53.82
2016-02-12T03:49:30.448Z,53.24
2016-02-12T03:50:30.513Z,53.31
2016-02-12T03:51:30.564Z,53.53
2016-02-12T03:52:30.597Z,53.22
2016-02-12T03:53:30.647Z,53.41
2016-02-12T03:54:30.712Z,53.12
2016-02-12T03:55:30.762Z,53.6
2016-02-12T03:56:30.828Z,53.31
2016-02-12T03:57:30.892Z,53.72
2016-02-12T03:58:30.911Z,53.44
2016-02-12T03:59:30.961Z,53.79
2016-02-12T04:00:31.025Z,53.24
2016-02-12T04:01:31.075Z,53.5
2016-02-12T04:02:31.124Z,53.5
2016-02-12T04:03:31.190Z,53.12
2016-02-12T04:04:31.225Z,53.7
2016-02-12T04:05:31.289Z,53.22
2016-02-12T04:06:31.339Z,53.6
2016-02-12T04:07:31.389Z,53.22
2016-02-12T04:08:31.469Z,53.22
2016-02-12T04:09:31.503Z,53.22
2016-02-12T04:10:31.538Z,53.22
2016-02-12T04:11:31.621Z,53.31
2016-02-12T04:12:31.658Z,53.6
2016-02-12T04:13:31.708Z,53.05
2016-02-12T04:14:31.789Z,53.03
2016-02-12T04:15:31.823Z,53.89
2016-02-12T04:16:31.856Z,53.22
2016-02-12T04:17:31.938Z,53.22
2016-02-12T04:18:31.987Z,53.7
2016-02-12T04:19:32.037Z,53.6
2016-02-12T04:20:32.073Z,53.6
2016-02-12T04:21:32.138Z,53.41
2016-02-12T04:22:32.188Z,53.79
2016-02-12T04:23:32.238Z,53.6
2016-02-12T04:24:32.286Z,53.79
2016-02-12T04:25:32.368Z,53.6
2016-02-12T04:26:32.417Z,53.6
2016-02-12T04:27:32.466Z,53.89
2016-02-12T04:28:32.518Z,53.79
2016-02-12T04:29:32.567Z,53.7
2016-02-12T04:30:32.602Z,54.08
2016-02-12T04:31:32.667Z,53.6
2016-02-12T04:32:32.700Z,53.99
2016-02-12T04:33:32.782Z,53.6
2016-02-12T04:34:32.831Z,53.7
2016-02-12T04:35:32.881Z,53.7
2016-02-12T04:36:32.931Z,53.79
2016-02-12T04:37:32.981Z,53.6
2016-02-12T04:38:33.031Z,53.5
2016-02-12T04:39:33.096Z,53.89
2016-02-12T04:40:33.148Z,53.6
2016-02-12T04:41:33.181Z,53.6
2016-02-12T04:42:33.248Z,53.89
2016-02-12T04:43:33.312Z,53.79
2016-02-12T04:44:33.362Z,53.79
2016-02-12T04:45:33.426Z,53.5
2016-02-12T04:46:33.447Z,53.41
2016-02-12T04:47:33.512Z,53.41
2016-02-12T04:48:33.578Z,53.41
2016-02-12T04:49:33.611Z,53.6
2016-02-12T04:50:33.661Z,54.46
2016-02-12T04:51:33.727Z,54.37
2016-02-12T04:52:33.777Z,53.6
2016-02-12T04:53:33.825Z,54.37
2016-02-12T04:54:33.891Z,54.08
2016-02-12T04:55:33.940Z,53.99
2016-02-12T04:56:34.006Z,54.08
2016-02-12T04:57:34.055Z,54.27
2016-02-12T04:58:34.088Z,53.89
2016-02-12T04:59:34.154Z,54.27
2016-02-12T05:00:34.188Z,53.89
2016-02-12T05:01:34.254Z,54.27
2016-02-12T05:02:34.319Z,54.37
2016-02-12T05:03:34.352Z,54.08
2016-02-12T05:04:34.402Z,54.56
2016-02-12T05:05:34.467Z,53.6
2016-02-12T05:06:34.534Z,53.6
2016-02-12T05:07:34.568Z,53.79
2016-02-12T05:08:34.632Z,53.7
2016-02-12T05:09:34.682Z,54.08
2016-02-12T05:10:34.747Z,54.37
2016-02-12T05:11:34.786Z,54.37
2016-02-12T05:12:34.836Z,53.79
2016-02-12T05:13:34.901Z,53.89
2016-02-12T05:14:34.951Z,53.99
2016-02-12T05:15:34.984Z,54.37
2016-02-12T05:16:35.065Z,53.89
2016-02-12T05:17:35.115Z,53.7
2016-02-12T05:18:35.149Z,53.99
2016-02-12T05:19:35.215Z,54.75
2016-02-12T05:20:35.280Z,54.75
2016-02-12T05:21:35.314Z,54.17
2016-02-12T05:22:35.396Z,54.56
2016-02-12T05:23:35.414Z,54.75
2016-02-12T05:24:35.480Z,54.56
2016-02-12T05:25:35.545Z,54.46
2016-02-12T05:26:35.563Z,54.46
2016-02-12T05:27:35.627Z,53.99
2016-02-12T05:28:35.694Z,54.75
2016-02-12T05:29:35.727Z,54.37
2016-02-12T05:30:35.777Z,54.56
2016-02-12T05:31:35.857Z,54.37
2016-02-12T05:32:35.891Z,54.08
2016-02-12T05:33:35.941Z,54.17
2016-02-12T05:34:36.022Z,54.66
2016-02-12T05:35:36.057Z,54.56
2016-02-12T05:36:36.090Z,54.56
2016-02-12T05:37:36.186Z,54.46
2016-02-12T05:38:36.205Z,54.37
2016-02-12T05:39:36.254Z,54.27
2016-02-12T05:40:36.325Z,54.27
2016-02-12T05:41:36.375Z,54.27
2016-02-12T05:42:36.409Z,54.17
2016-02-12T05:43:36.476Z,54.37
2016-02-12T05:44:35.791Z,55.04
2016-02-12T05:45:36.559Z,54.37
2016-02-12T05:46:36.625Z,54.27
2016-02-12T05:47:36.674Z,54.37
2016-02-12T05:48:36.583Z,54.17
2016-02-12T05:49:36.790Z,54.08
2016-02-12T05:50:36.839Z,54.27
2016-02-12T05:51:36.905Z,54.27
2016-02-12T05:52:36.954Z,54.37
2016-02-12T05:53:36.988Z,54.37
2016-02-12T05:54:37.037Z,53.99
2016-02-12T05:55:37.118Z,54.08
2016-02-12T05:56:37.153Z,54.27
2016-02-12T05:57:37.204Z,54.46
2016-02-12T05:58:37.286Z,54.56
2016-02-12T05:59:37.335Z,54.08
2016-02-12T06:00:37.387Z,54.37
2016-02-12T06:01:37.422Z,54.27
2016-02-12T06:02:37.471Z,54.66
2016-02-12T06:03:37.536Z,52.16
2016-02-12T06:04:37.586Z,47.37
2016-02-12T06:05:37.651Z,48.52
2016-02-12T06:06:37.701Z,52.83
2016-02-12T06:07:37.766Z,53.09
2016-02-12T06:08:37.800Z,53.79
2016-02-12T06:09:37.865Z,53.89
2016-02-12T06:10:37.918Z,54.66
2016-02-12T06:11:37.952Z,54.37
2016-02-12T06:12:38.018Z,54.37
2016-02-12T06:13:38.051Z,54.63
2016-02-12T06:14:38.117Z,54.34
2016-02-12T06:15:38.182Z,54.56
2016-02-12T06:16:38.231Z,54.66
2016-02-12T06:17:38.282Z,54.56
2016-02-12T06:18:38.332Z,55.11
2016-02-12T06:19:38.381Z,54.66
2016-02-12T06:20:38.446Z,54.56
2016-02-12T06:21:38.511Z,54.37
2016-02-12T06:22:38.530Z,54.66
2016-02-12T06:23:38.595Z,54.08
2016-02-12T06:24:38.645Z,54.66
2016-02-12T06:25:38.679Z,54.27
2016-02-12T06:26:38.729Z,54.66
2016-02-12T06:27:38.810Z,54.66
2016-02-12T06:28:38.844Z,54.66
2016-02-12T06:29:38.893Z,54.66
2016-02-12T06:30:38.958Z,54.08
2016-02-12T06:31:39.024Z,53.99
2016-02-12T06:32:39.058Z,54.08
2016-02-12T06:33:39.138Z,54.75
2016-02-12T06:34:39.206Z,54.56
2016-02-12T06:35:39.224Z,54.46
2016-02-12T06:36:39.290Z,54.56
2016-02-12T06:37:39.339Z,54.66
2016-02-12T06:38:39.373Z,54.66
2016-02-12T06:39:39.439Z,54.56
2016-02-12T06:40:39.488Z,54.66
2016-02-12T06:41:39.554Z,54.46
2016-02-12T06:42:39.603Z,54.56
2016-02-12T06:43:39.640Z,54.46
2016-02-12T06:44:39.704Z,54.46
2016-02-12T06:45:39.755Z,54.46
2016-02-12T06:46:39.789Z,54.17
2016-02-12T06:47:39.854Z,54.17
2016-02-12T06:48:39.935Z,54.53
2016-02-12T06:49:39.968Z,54.46
2016-02-12T06:50:40.003Z,54.66
2016-02-12T06:51:40.068Z,54.27
2016-02-12T06:52:40.119Z,54.27
2016-02-12T06:53:40.184Z,54.27
2016-02-12T06:54:40.218Z,54.46
2016-02-12T06:55:40.283Z,54.08
2016-02-12T06:56:40.349Z,54.24
2016-02-12T06:57:40.399Z,54.46
2016-02-12T06:58:40.432Z,54.46
2016-02-12T06:59:40.497Z,54.66
2016-02-12T07:00:40.532Z,54.46
2016-02-12T07:01:40.583Z,54.27
2016-02-12T07:02:40.663Z,54.75
2016-02-12T07:03:40.713Z,54.85
2016-02-12T07:04:40.762Z,54.27
2016-02-12T07:05:40.797Z,54.63
2016-02-12T07:06:40.847Z,54.37
2016-02-12T07:07:40.912Z,54.56
2016-02-12T07:08:40.961Z,54.08
2016-02-12T07:09:41.012Z,54.46
2016-02-12T07:10:41.076Z,54.66
2016-02-12T07:11:41.130Z,54.08
2016-02-12T07:12:41.180Z,54.37
2016-02-12T07:13:41.244Z,54.37
2016-02-12T07:14:41.295Z,54.44
2016-02-12T07:15:41.329Z,54.46
2016-02-12T07:16:41.409Z,54.46
2016-02-12T07:17:41.475Z,54.66
2016-02-12T07:18:41.493Z,54.44
2016-02-12T07:19:41.574Z,54.53
2016-02-12T07:20:41.623Z,54.46
2016-02-12T07:21:41.641Z,54.56
2016-02-12T07:22:41.707Z,54.46
2016-02-12T07:23:41.771Z,54.75
2016-02-12T07:24:41.806Z,54.66
2016-02-12T07:25:41.856Z,54.56
2016-02-12T07:26:41.936Z,53.99
2016-02-12T07:27:41.971Z,53.7
2016-02-12T07:28:42.020Z,54.75
2016-02-12T07:29:42.085Z,54.56
2016-02-12T07:30:42.134Z,54.17
2016-02-12T07:31:42.184Z,54.37
2016-02-12T07:32:42.234Z,54.46
2016-02-12T07:33:42.283Z,54.75
2016-02-12T07:34:42.349Z,54.66
2016-02-12T07:35:42.398Z,54.37
2016-02-12T07:36:42.447Z,54.56
2016-02-12T07:37:42.498Z,54.56
2016-02-12T07:38:42.548Z,54.66
2016-02-12T07:39:42.597Z,54.66
2016-02-12T07:40:42.663Z,54.94
2016-02-12T07:41:42.713Z,54.85
2016-02-12T07:42:42.762Z,52.64
2016-02-12T07:43:42.843Z,50.43
2016-02-12T07:44:42.862Z,50.22
2016-02-12T07:45:42.927Z,49.76
2016-02-12T07:46:42.993Z,49.74
2016-02-12T07:47:43.027Z,49.74
2016-02-12T07:48:43.092Z,50.32
2016-02-12T07:49:43.126Z,50.12
2016-02-12T07:50:43.176Z,50.79
2016-02-12T07:51:43.241Z,50.7
2016-02-12T07:52:43.290Z,51.28
2016-02-12T07:53:43.340Z,51.37
2016-02-12T07:54:43.390Z,51.46
2016-02-12T07:55:43.456Z,50.41
2016-02-12T07:56:43.505Z,51.56
2016-02-12T07:57:43.555Z,51.46
2016-02-12T07:58:43.605Z,51.44
2016-02-12T07:59:43.654Z,52.23
2016-02-12T08:00:43.735Z,51.34
2016-02-12T08:01:43.753Z,52.3
2016-02-12T08:02:43.818Z,52.42
2016-02-12T08:03:43.870Z,52.42
2016-02-12T08:04:43.920Z,51.82
2016-02-12T08:05:43.968Z,52.11
2016-02-12T08:06:44.034Z,51.44
2016-02-12T08:07:44.084Z,51.34
2016-02-12T08:08:44.149Z,50.87
2016-02-12T08:09:44.183Z,51.34
2016-02-12T08:10:44.232Z,51.54
2016-02-12T08:11:44.298Z,51.15
2016-02-12T08:12:44.332Z,51.25
2016-02-12T08:13:44.385Z,51.25
2016-02-12T08:14:44.466Z,50.96
2016-02-12T08:15:44.500Z,50.67
2016-02-12T08:16:44.550Z,50.58
2016-02-12T08:17:44.616Z,50.58
2016-02-12T08:18:44.665Z,50.38
2016-02-12T08:19:44.714Z,50.1
2016-02-12T08:20:44.766Z,50.29
2016-02-12T08:21:44.815Z,49.91
2016-02-12T08:22:44.912Z,50
2016-02-12T08:23:44.933Z,49.81
2016-02-12T08:24:44.968Z,50
2016-02-12T08:25:45.032Z,49.05
2016-02-12T08:26:45.098Z,48.57
2016-02-12T08:27:45.115Z,48.85
2016-02-12T08:28:45.195Z,48.66
2016-02-12T08:29:45.230Z,48.18
2016-02-12T08:30:45.698Z,48.38
2016-02-12T08:31:45.340Z,48.66
2016-02-12T08:32:45.421Z,48.25
2016-02-12T08:33:45.439Z,48.25
2016-02-12T08:34:45.521Z,48.73
2016-02-12T08:35:45.539Z,47.68
2016-02-12T08:36:45.604Z,47.2
2016-02-12T08:37:45.654Z,47.3
2016-02-12T08:38:45.703Z,47.58
2016-02-12T08:39:45.768Z,47.11
2016-02-12T08:40:45.818Z,47.49
2016-02-12T08:41:45.888Z,47.58
2016-02-12T08:42:45.922Z,48.44
2016-02-12T08:43:45.989Z,47.78
2016-02-12T08:44:46.023Z,47.87
2016-02-12T08:45:46.057Z,46.82
2016-02-12T08:46:46.122Z,47.01
2016-02-12T08:47:46.171Z,47.68
2016-02-12T08:48:46.238Z,47.87
2016-02-12T08:49:46.273Z,46.72
2016-02-12T08:50:46.323Z,46.91
2016-02-12T08:51:46.387Z,46.7
2016-02-12T08:52:46.437Z,47.27
2016-02-12T08:53:46.471Z,46.61
2016-02-12T08:54:46.552Z,47.18
2016-02-12T08:55:46.586Z,47.18
2016-02-12T08:56:46.620Z,46.98
2016-02-12T08:57:46.700Z,46.51
2016-02-12T08:58:46.751Z,46.8
2016-02-12T08:59:46.801Z,46.51
2016-02-12T09:00:46.850Z,47.56
2016-02-12T09:01:46.900Z,47.08
2016-02-12T09:02:46.934Z,47.37
2016-02-12T09:03:46.998Z,46.61
2016-02-12T09:04:47.100Z,47.08
2016-02-12T09:05:47.087Z,46.12
2016-02-12T09:06:47.153Z,47.08
2016-02-12T09:07:47.217Z,47.66
2016-02-12T09:08:47.267Z,46.61
2016-02-12T09:09:47.302Z,47.18
2016-02-12T09:10:47.382Z,46.31
2016-02-12T09:11:47.447Z,46.41
2016-02-12T09:12:47.484Z,46.41
2016-02-12T09:13:47.518Z,46.22
2016-02-12T09:14:47.567Z,46.12
2016-02-12T09:15:47.650Z,46.8
2016-02-12T09:16:47.684Z,46.89
2016-02-12T09:17:47.733Z,45.74
2016-02-12T09:18:47.797Z,46.22
2016-02-12T09:19:47.848Z,46.31
2016-02-12T09:20:47.882Z,45.65
2016-02-12T09:21:47.948Z,45.84
2016-02-12T09:22:47.998Z,45.94
2016-02-12T09:23:48.047Z,45.74
2016-02-12T09:24:47.942Z,45.94
2016-02-12T09:25:48.133Z,45.74
2016-02-12T09:26:48.214Z,45.74
2016-02-12T09:27:48.264Z,45.84
2016-02-12T09:28:48.329Z,46.51
2016-02-12T09:29:48.359Z,46.8
2016-02-12T09:30:48.397Z,46.12
2016-02-12T09:31:48.433Z,45.94
2016-02-12T09:32:48.471Z,46.31
2016-02-12T09:33:48.529Z,45.94
2016-02-12T09:34:48.552Z,45.84
2016-02-12T09:35:48.613Z,45.45
2016-02-12T09:36:48.658Z,45.17
2016-02-12T09:37:48.702Z,45.17
2016-02-12T09:38:48.747Z,46.31
2016-02-12T09:39:48.794Z,46.01
2016-02-12T09:40:48.856Z,44.98
2016-02-12T09:41:48.889Z,44.86
2016-02-12T09:42:48.923Z,44.76
2016-02-12T09:43:48.986Z,45.05
2016-02-12T09:44:49.051Z,44.86
2016-02-12T09:45:49.085Z,44.67
2016-02-12T09:46:49.148Z,44.86
2016-02-12T09:47:49.197Z,44.95
2016-02-12T09:48:49.230Z,44.76
2016-02-12T09:49:49.279Z,45.43
2016-02-12T09:50:49.360Z,44.86
2016-02-12T09:51:49.410Z,45.15
2016-02-12T09:52:49.446Z,45.15
2016-02-12T09:53:49.496Z,45.72
2016-02-12T09:54:49.531Z,45.24
2016-02-12T09:55:49.596Z,44.95
2016-02-12T09:56:49.630Z,45.62
2016-02-12T09:57:49.695Z,44.95
2016-02-12T09:58:49.775Z,45.15
2016-02-12T09:59:49.809Z,45.43
2016-02-12T10:00:49.843Z,44.95
2016-02-12T10:01:49.909Z,45.34
2016-02-12T10:02:50.487Z,44.86
2016-02-12T10:03:50.006Z,44.09
2016-02-12T10:04:50.056Z,43.9
2016-02-12T10:05:50.106Z,44.48
2016-02-12T10:06:50.187Z,44.67
2016-02-12T10:07:50.221Z,44.07
2016-02-12T10:08:50.271Z,43.79
2016-02-12T10:09:50.323Z,44.19
2016-02-12T10:10:50.371Z,44.36
2016-02-12T10:11:50.407Z,44.45
2016-02-12T10:12:50.502Z,44.26
2016-02-12T10:13:50.541Z,44.55
2016-02-12T10:14:50.590Z,45.12
2016-02-12T10:15:50.624Z,44.36
2016-02-12T10:16:50.674Z,44.17
2016-02-12T10:17:50.739Z,44.55
2016-02-12T10:18:50.790Z,44.65
2016-02-12T10:19:50.823Z,44.45
2016-02-12T10:20:50.904Z,44.55
2016-02-12T10:21:50.953Z,43.79
2016-02-12T10:22:51.003Z,44.07
2016-02-12T10:23:51.037Z,44.45
2016-02-12T10:24:51.087Z,44.55
2016-02-12T10:25:51.153Z,44.55
2016-02-12T10:26:51.186Z,44.36
2016-02-12T10:27:51.253Z,44.26
2016-02-12T10:28:51.287Z,44.45
2016-02-12T10:29:51.368Z,44.45
2016-02-12T10:30:51.386Z,44.55
2016-02-12T10:31:51.451Z,44.84
2016-02-12T10:32:51.516Z,44.45
2016-02-12T10:33:51.535Z,44.07
2016-02-12T10:34:51.584Z,44.07
2016-02-12T10:35:51.666Z,43.88
2016-02-12T10:36:51.747Z,44.38
2016-02-12T10:37:51.750Z,43.88
2016-02-12T10:38:51.817Z,44
2016-02-12T10:39:51.866Z,43.88
2016-02-12T10:40:51.915Z,43.88
2016-02-12T10:41:51.965Z,43.98
2016-02-12T10:42:52.031Z,43.98
2016-02-12T10:43:52.070Z,44.07
2016-02-12T10:44:52.134Z,43.33
2016-02-12T10:45:52.184Z,43.02
2016-02-12T10:46:52.217Z,42.35
2016-02-12T10:47:52.290Z,43.3
2016-02-12T10:48:52.323Z,43.52
2016-02-12T10:49:52.356Z,43.33
2016-02-12T10:50:52.407Z,43.98
2016-02-12T10:51:52.487Z,43.8
2016-02-12T10:52:52.537Z,43.8
2016-02-12T10:53:52.571Z,43.8
2016-02-12T10:54:52.636Z,43.33
2016-02-12T10:55:52.686Z,43.23
2016-02-12T10:56:52.751Z,44
2016-02-12T10:57:52.785Z,44.29
2016-02-12T10:58:52.834Z,43.71
2016-02-12T10:59:52.884Z,44
2016-02-12T11:00:52.933Z,43.43
2016-02-12T11:01:52.983Z,43.33
2016-02-12T11:02:53.049Z,43.14
2016-02-12T11:03:53.097Z,43.8
2016-02-12T11:04:53.149Z,43.52
2016-02-12T11:05:53.214Z,43.33
2016-02-12T11:06:53.263Z,43.52
2016-02-12T11:07:53.297Z,43.8
2016-02-12T11:08:53.346Z,43.52
2016-02-12T11:09:53.380Z,42.85
2016-02-12T11:10:53.492Z,42.56
2016-02-12T11:11:53.511Z,42.76
2016-02-12T11:12:53.560Z,42.37
2016-02-12T11:13:53.615Z,42.18
2016-02-12T11:14:53.679Z,42.76
2016-02-12T11:15:53.697Z,42.18
2016-02-12T11:16:53.763Z,41.41
2016-02-12T11:17:53.812Z,41.51
2016-02-12T11:18:53.862Z,41.99
2016-02-12T11:19:53.911Z,42.18
2016-02-12T11:20:53.977Z,41.22
2016-02-12T11:21:54.043Z,41.51
2016-02-12T11:22:54.077Z,41.99
2016-02-12T11:23:54.111Z,42.08
2016-02-12T11:24:54.176Z,42.66
2016-02-12T11:25:54.226Z,42.47
2016-02-12T11:26:54.276Z,43.14
2016-02-12T11:27:54.325Z,43.14
2016-02-12T11:28:54.406Z,43.14
2016-02-12T11:29:54.428Z,43.62
2016-02-12T11:30:54.306Z,42.85
2016-02-12T11:31:54.544Z,42.37
2016-02-12T11:32:54.593Z,41.99
2016-02-12T11:33:54.658Z,40.36
2016-02-12T11:34:54.677Z,40.94
2016-02-12T11:35:54.726Z,41.32
2016-02-12T11:36:54.791Z,41.61
2016-02-12T11:37:54.841Z,42.08
2016-02-12T11:38:54.878Z,41.7
2016-02-12T11:39:54.786Z,42.08
2016-02-12T11:40:54.977Z,42.18
2016-02-12T11:41:55.027Z,42.08
2016-02-12T11:42:55.108Z,42.18
2016-02-12T11:43:55.157Z,42.08
2016-02-12T11:44:55.195Z,41.99
2016-02-12T11:45:55.260Z,42.27
2016-02-12T11:46:55.295Z,42.27
2016-02-12T11:47:55.376Z,42.27
2016-02-12T11:48:55.410Z,42.56
2016-02-12T11:49:55.443Z,42.76
2016-02-12T11:50:55.541Z,42.77
2016-02-12T11:51:55.575Z,42.76
2016-02-12T11:52:55.608Z,42.3
2016-02-12T11:53:55.674Z,42.11
2016-02-12T11:54:55.708Z,42.2
2016-02-12T11:55:55.758Z,42.27
2016-02-12T11:56:55.824Z,42.11
2016-02-12T11:57:55.890Z,41.44
2016-02-12T11:58:55.924Z,41.15
2016-02-12T11:59:55.991Z,41.34
2016-02-12T12:00:56.025Z,41.63
2016-02-12T12:01:56.090Z,42.3
2016-02-12T12:02:56.140Z,41.72
2016-02-12T12:03:56.173Z,40.95
2016-02-12T12:04:56.224Z,41.34
2016-02-12T12:05:56.290Z,41.03
2016-02-12T12:06:56.339Z,41.22
2016-02-12T12:07:56.390Z,41.41
2016-02-12T12:08:56.455Z,41.22
2016-02-12T12:09:56.489Z,41.13
2016-02-12T12:10:56.554Z,41.24
2016-02-12T12:11:56.588Z,41.34
2016-02-12T12:12:56.653Z,41.53
2016-02-12T12:13:56.702Z,41.53
2016-02-12T12:14:56.737Z,41.34
2016-02-12T12:15:56.803Z,40.95
2016-02-12T12:16:56.870Z,40.77
2016-02-12T12:17:56.903Z,40.77
2016-02-12T12:18:56.937Z,41.15
2016-02-12T12:19:57.018Z,41.34
2016-02-12T12:20:57.053Z,41.7
2016-02-12T12:21:57.101Z,42.18
2016-02-12T12:22:57.167Z,42.4
2016-02-12T12:23:57.217Z,41.22
2016-02-12T12:24:57.251Z,41.44
2016-02-12T12:25:57.316Z,40.95
2016-02-12T12:26:57.381Z,40.48
2016-02-12T12:27:57.415Z,40.36
2016-02-12T12:28:57.465Z,40.36
2016-02-12T12:29:57.514Z,40.46
2016-02-12T12:30:57.565Z,40.19
2016-02-12T12:31:57.630Z,40.29
2016-02-12T12:32:57.679Z,40.67
2016-02-12T12:33:57.714Z,41.13
2016-02-12T12:34:57.763Z,41.32
2016-02-12T12:35:57.829Z,41.22
2016-02-12T12:36:57.863Z,41.32
2016-02-12T12:37:57.944Z,41.44
2016-02-12T12:38:57.977Z,40.84
2016-02-12T12:39:58.043Z,40.94
2016-02-12T12:40:58.076Z,40.86
2016-02-12T12:41:58.115Z,40.86
2016-02-12T12:42:58.181Z,40.36
2016-02-12T12:43:58.246Z,40.95
2016-02-12T12:44:58.280Z,39.5
2016-02-12T12:45:58.330Z,39.23
2016-02-12T12:46:58.396Z,39.43
2016-02-12T12:47:58.445Z,39.6
2016-02-12T12:48:58.479Z,39.98
2016-02-12T12:49:58.560Z,39.69
2016-02-12T12:50:58.579Z,39.5
2016-02-12T12:51:58.660Z,39.79
2016-02-12T12:52:58.679Z,39.89
2016-02-12T12:53:58.744Z,40.17
2016-02-12T12:54:58.809Z,40.26
2016-02-12T12:55:58.843Z,40.26